sensor_id;sensor_type;location;lat;lon;timestamp;P1;durP1;ratioP1;P2;durP2;ratioP2
51981;SDS011;37998;53.416;6.730;2023-02-23T00:00:16;58.10;;;34.35;;
51981;SDS011;37998;53.416;6.730;2023-02-23T00:02:49;56.78;;;33.30;;
51981;SDS011;37998;53.416;6.730;2023-02-23T00:05:15;60.60;;;34.63;;
51981;SDS011;37998;53.416;6.730;2023-02-23T00:07:42;57.80;;;34.15;;
51981;SDS011;37998;53.416;6.730;2023-02-23T00:10:12;64.28;;;35.05;;
51981;SDS011;37998;53.416;6.730;2023-02-23T00:12:42;62.30;;;35.83;;
51981;SDS011;37998;53.416;6.730;2023-02-23T00:15:08;61.67;;;35.28;;
51981;SDS011;37998;53.416;6.730;2023-02-23T00:17:35;65.40;;;34.28;;
51981;SDS011;37998;53.416;6.730;2023-02-23T00:20:02;59.58;;;33.22;;
51981;SDS011;37998;53.416;6.730;2023-02-23T00:22:35;57.00;;;33.22;;
51981;SDS011;37998;53.416;6.730;2023-02-23T00:25:05;59.60;;;33.75;;
51981;SDS011;37998;53.416;6.730;2023-02-23T00:27:31;56.28;;;34.28;;
51981;SDS011;37998;53.416;6.730;2023-02-23T00:29:57;62.88;;;35.45;;
51981;SDS011;37998;53.416;6.730;2023-02-23T00:32:23;62.45;;;35.88;;
51981;SDS011;37998;53.416;6.730;2023-02-23T00:34:48;64.95;;;36.22;;
51981;SDS011;37998;53.416;6.730;2023-02-23T00:37:14;60.25;;;34.92;;
51981;SDS011;37998;53.416;6.730;2023-02-23T00:39:41;64.07;;;35.35;;
51981;SDS011;37998;53.416;6.730;2023-02-23T00:42:07;62.80;;;36.15;;
51981;SDS011;37998;53.416;6.730;2023-02-23T00:44:32;68.47;;;37.78;;
51981;SDS011;37998;53.416;6.730;2023-02-23T00:47:01;67.20;;;37.60;;
51981;SDS011;37998;53.416;6.730;2023-02-23T00:49:27;70.43;;;36.17;;
51981;SDS011;37998;53.416;6.730;2023-02-23T00:51:53;61.25;;;35.85;;
51981;SDS011;37998;53.416;6.730;2023-02-23T00:54:19;70.03;;;39.20;;
51981;SDS011;37998;53.416;6.730;2023-02-23T00:56:46;66.93;;;38.38;;
51981;SDS011;37998;53.416;6.730;2023-02-23T00:59:12;65.85;;;38.88;;
51981;SDS011;37998;53.416;6.730;2023-02-23T01:01:38;64.78;;;36.85;;
51981;SDS011;37998;53.416;6.730;2023-02-23T01:04:08;65.90;;;38.13;;
51981;SDS011;37998;53.416;6.730;2023-02-23T01:06:34;67.72;;;39.58;;
51981;SDS011;37998;53.416;6.730;2023-02-23T01:09:07;62.95;;;37.72;;
51981;SDS011;37998;53.416;6.730;2023-02-23T01:11:34;73.88;;;39.92;;
51981;SDS011;37998;53.416;6.730;2023-02-23T01:14:00;69.07;;;36.50;;
51981;SDS011;37998;53.416;6.730;2023-02-23T01:16:27;69.57;;;39.25;;
51981;SDS011;37998;53.416;6.730;2023-02-23T01:18:56;70.05;;;39.45;;
51981;SDS011;37998;53.416;6.730;2023-02-23T01:21:25;64.93;;;38.17;;
51981;SDS011;37998;53.416;6.730;2023-02-23T01:23:56;61.65;;;35.80;;
51981;SDS011;37998;53.416;6.730;2023-02-23T01:26:24;60.53;;;34.55;;
51981;SDS011;37998;53.416;6.730;2023-02-23T01:28:58;64.82;;;36.55;;
51981;SDS011;37998;53.416;6.730;2023-02-23T01:31:25;72.15;;;38.72;;
51981;SDS011;37998;53.416;6.730;2023-02-23T01:33:55;72.05;;;41.42;;
51981;SDS011;37998;53.416;6.730;2023-02-23T01:36:22;81.07;;;41.15;;
51981;SDS011;37998;53.416;6.730;2023-02-23T01:38:49;71.43;;;41.15;;
51981;SDS011;37998;53.416;6.730;2023-02-23T01:41:18;68.55;;;37.40;;
51981;SDS011;37998;53.416;6.730;2023-02-23T01:46:23;69.18;;;37.13;;
51981;SDS011;37998;53.416;6.730;2023-02-23T01:48:48;71.55;;;40.30;;
51981;SDS011;37998;53.416;6.730;2023-02-23T01:51:17;72.47;;;37.83;;
51981;SDS011;37998;53.416;6.730;2023-02-23T01:53:50;74.07;;;36.63;;
51981;SDS011;37998;53.416;6.730;2023-02-23T01:56:22;82.72;;;42.60;;
51981;SDS011;37998;53.416;6.730;2023-02-23T01:58:58;81.85;;;41.60;;
51981;SDS011;37998;53.416;6.730;2023-02-23T02:01:30;82.90;;;42.40;;
51981;SDS011;37998;53.416;6.730;2023-02-23T02:04:00;78.05;;;40.35;;
51981;SDS011;37998;53.416;6.730;2023-02-23T02:06:30;75.05;;;38.92;;
51981;SDS011;37998;53.416;6.730;2023-02-23T02:11:45;88.10;;;42.03;;
51981;SDS011;37998;53.416;6.730;2023-02-23T02:14:19;85.80;;;43.28;;
51981;SDS011;37998;53.416;6.730;2023-02-23T02:33:32;69.10;;;37.65;;
51981;SDS011;37998;53.416;6.730;2023-02-23T02:38:32;80.88;;;40.75;;
51981;SDS011;37998;53.416;6.730;2023-02-23T02:41:19;77.93;;;40.17;;
51981;SDS011;37998;53.416;6.730;2023-02-23T02:44:10;88.07;;;42.72;;
51981;SDS011;37998;53.416;6.730;2023-02-23T02:46:44;84.93;;;42.30;;
51981;SDS011;37998;53.416;6.730;2023-02-23T02:49:21;90.07;;;44.03;;
51981;SDS011;37998;53.416;6.730;2023-02-23T02:52:16;83.15;;;42.17;;
51981;SDS011;37998;53.416;6.730;2023-02-23T02:55:06;92.63;;;46.13;;
51981;SDS011;37998;53.416;6.730;2023-02-23T02:57:36;90.25;;;45.05;;
51981;SDS011;37998;53.416;6.730;2023-02-23T03:00:02;94.43;;;45.63;;
51981;SDS011;37998;53.416;6.730;2023-02-23T03:02:47;98.97;;;47.65;;
51981;SDS011;37998;53.416;6.730;2023-02-23T03:05:46;96.68;;;46.42;;
51981;SDS011;37998;53.416;6.730;2023-02-23T03:11:29;97.10;;;46.90;;
51981;SDS011;37998;53.416;6.730;2023-02-23T03:29:00;87.10;;;42.80;;
51981;SDS011;37998;53.416;6.730;2023-02-23T03:35:04;70.22;;;37.42;;
51981;SDS011;37998;53.416;6.730;2023-02-23T03:40:49;70.82;;;37.08;;
51981;SDS011;37998;53.416;6.730;2023-02-23T03:43:44;66.60;;;35.85;;
51981;SDS011;37998;53.416;6.730;2023-02-23T03:46:32;67.30;;;33.92;;
51981;SDS011;37998;53.416;6.730;2023-02-23T03:49:20;61.95;;;31.02;;
51981;SDS011;37998;53.416;6.730;2023-02-23T03:52:10;53.03;;;28.50;;
51981;SDS011;37998;53.416;6.730;2023-02-23T03:55:02;56.63;;;29.98;;
51981;SDS011;37998;53.416;6.730;2023-02-23T03:57:51;60.22;;;30.42;;
51981;SDS011;37998;53.416;6.730;2023-02-23T04:00:40;57.05;;;29.80;;
51981;SDS011;37998;53.416;6.730;2023-02-23T04:03:28;50.75;;;27.92;;
51981;SDS011;37998;53.416;6.730;2023-02-23T04:06:15;51.40;;;27.90;;
51981;SDS011;37998;53.416;6.730;2023-02-23T04:09:05;47.35;;;26.98;;
51981;SDS011;37998;53.416;6.730;2023-02-23T04:11:52;47.60;;;26.60;;
51981;SDS011;37998;53.416;6.730;2023-02-23T04:14:54;45.47;;;25.95;;
51981;SDS011;37998;53.416;6.730;2023-02-23T04:17:22;47.58;;;25.48;;
51981;SDS011;37998;53.416;6.730;2023-02-23T04:19:51;52.05;;;27.23;;
51981;SDS011;37998;53.416;6.730;2023-02-23T04:22:18;50.35;;;27.77;;
51981;SDS011;37998;53.416;6.730;2023-02-23T04:24:44;59.53;;;29.65;;
51981;SDS011;37998;53.416;6.730;2023-02-23T04:27:11;62.08;;;28.58;;
51981;SDS011;37998;53.416;6.730;2023-02-23T04:29:37;60.97;;;32.17;;
51981;SDS011;37998;53.416;6.730;2023-02-23T04:32:03;60.47;;;30.48;;
51981;SDS011;37998;53.416;6.730;2023-02-23T04:34:29;63.03;;;32.08;;
51981;SDS011;37998;53.416;6.730;2023-02-23T04:36:55;60.90;;;31.02;;
51981;SDS011;37998;53.416;6.730;2023-02-23T04:39:21;64.65;;;32.50;;
51981;SDS011;37998;53.416;6.730;2023-02-23T04:41:46;62.35;;;32.90;;
51981;SDS011;37998;53.416;6.730;2023-02-23T04:44:14;59.22;;;30.80;;
51981;SDS011;37998;53.416;6.730;2023-02-23T04:46:41;65.55;;;30.33;;
51981;SDS011;37998;53.416;6.730;2023-02-23T04:49:06;61.33;;;31.17;;
51981;SDS011;37998;53.416;6.730;2023-02-23T04:51:32;63.25;;;32.03;;
51981;SDS011;37998;53.416;6.730;2023-02-23T04:53:58;60.53;;;31.65;;
51981;SDS011;37998;53.416;6.730;2023-02-23T04:56:24;58.63;;;30.88;;
51981;SDS011;37998;53.416;6.730;2023-02-23T04:58:50;56.85;;;29.98;;
51981;SDS011;37998;53.416;6.730;2023-02-23T05:01:16;59.80;;;29.90;;
51981;SDS011;37998;53.416;6.730;2023-02-23T05:03:42;53.17;;;28.42;;
51981;SDS011;37998;53.416;6.730;2023-02-23T05:06:07;62.83;;;29.52;;
51981;SDS011;37998;53.416;6.730;2023-02-23T05:08:33;55.50;;;28.42;;
51981;SDS011;37998;53.416;6.730;2023-02-23T05:10:59;55.35;;;27.48;;
51981;SDS011;37998;53.416;6.730;2023-02-23T05:13:24;49.72;;;25.70;;
51981;SDS011;37998;53.416;6.730;2023-02-23T05:15:54;51.15;;;29.00;;
51981;SDS011;37998;53.416;6.730;2023-02-23T05:18:21;55.22;;;28.70;;
51981;SDS011;37998;53.416;6.730;2023-02-23T05:20:47;51.53;;;27.75;;
51981;SDS011;37998;53.416;6.730;2023-02-23T05:23:13;60.95;;;30.30;;
51981;SDS011;37998;53.416;6.730;2023-02-23T05:25:39;51.33;;;26.38;;
51981;SDS011;37998;53.416;6.730;2023-02-23T05:28:04;50.10;;;25.83;;
51981;SDS011;37998;53.416;6.730;2023-02-23T05:30:30;47.50;;;26.17;;
51981;SDS011;37998;53.416;6.730;2023-02-23T05:32:57;56.53;;;29.95;;
51981;SDS011;37998;53.416;6.730;2023-02-23T05:35:23;57.40;;;28.77;;
51981;SDS011;37998;53.416;6.730;2023-02-23T05:37:48;48.08;;;26.40;;
51981;SDS011;37998;53.416;6.730;2023-02-23T05:40:14;58.97;;;28.65;;
51981;SDS011;37998;53.416;6.730;2023-02-23T05:42:40;45.00;;;25.90;;
51981;SDS011;37998;53.416;6.730;2023-02-23T05:45:06;49.53;;;26.42;;
51981;SDS011;37998;53.416;6.730;2023-02-23T05:47:32;56.47;;;29.00;;
51981;SDS011;37998;53.416;6.730;2023-02-23T05:50:02;53.42;;;28.52;;
51981;SDS011;37998;53.416;6.730;2023-02-23T05:52:30;47.58;;;26.63;;
51981;SDS011;37998;53.416;6.730;2023-02-23T05:54:56;37.00;;;21.08;;
51981;SDS011;37998;53.416;6.730;2023-02-23T05:57:21;41.47;;;23.25;;
51981;SDS011;37998;53.416;6.730;2023-02-23T05:59:48;39.58;;;22.80;;
51981;SDS011;37998;53.416;6.730;2023-02-23T06:02:14;36.08;;;20.92;;
51981;SDS011;37998;53.416;6.730;2023-02-23T06:04:39;36.28;;;21.83;;
51981;SDS011;37998;53.416;6.730;2023-02-23T06:07:06;36.83;;;21.17;;
51981;SDS011;37998;53.416;6.730;2023-02-23T06:09:32;40.42;;;21.88;;
51981;SDS011;37998;53.416;6.730;2023-02-23T06:11:58;41.17;;;22.90;;
51981;SDS011;37998;53.416;6.730;2023-02-23T06:14:25;40.65;;;22.58;;
51981;SDS011;37998;53.416;6.730;2023-02-23T06:16:50;40.10;;;22.92;;
51981;SDS011;37998;53.416;6.730;2023-02-23T06:19:16;38.45;;;21.77;;
51981;SDS011;37998;53.416;6.730;2023-02-23T06:21:42;34.13;;;21.15;;
51981;SDS011;37998;53.416;6.730;2023-02-23T06:24:09;34.95;;;20.60;;
51981;SDS011;37998;53.416;6.730;2023-02-23T06:26:35;38.15;;;21.90;;
51981;SDS011;37998;53.416;6.730;2023-02-23T06:29:01;37.25;;;21.08;;
51981;SDS011;37998;53.416;6.730;2023-02-23T06:31:26;35.25;;;20.35;;
51981;SDS011;37998;53.416;6.730;2023-02-23T06:33:52;37.13;;;22.80;;
51981;SDS011;37998;53.416;6.730;2023-02-23T06:36:17;38.85;;;21.75;;
51981;SDS011;37998;53.416;6.730;2023-02-23T06:38:43;36.75;;;21.35;;
51981;SDS011;37998;53.416;6.730;2023-02-23T06:41:09;38.25;;;22.80;;
51981;SDS011;37998;53.416;6.730;2023-02-23T06:43:36;38.97;;;21.75;;
51981;SDS011;37998;53.416;6.730;2023-02-23T06:46:02;39.67;;;21.63;;
51981;SDS011;37998;53.416;6.730;2023-02-23T06:48:28;41.63;;;23.70;;
51981;SDS011;37998;53.416;6.730;2023-02-23T06:50:56;42.53;;;23.20;;
51981;SDS011;37998;53.416;6.730;2023-02-23T06:53:22;40.15;;;23.30;;
51981;SDS011;37998;53.416;6.730;2023-02-23T06:55:49;36.03;;;20.30;;
51981;SDS011;37998;53.416;6.730;2023-02-23T06:58:14;41.50;;;22.85;;
51981;SDS011;37998;53.416;6.730;2023-02-23T07:00:41;40.47;;;22.15;;
51981;SDS011;37998;53.416;6.730;2023-02-23T07:03:07;37.15;;;21.52;;
51981;SDS011;37998;53.416;6.730;2023-02-23T07:05:35;38.28;;;22.95;;
51981;SDS011;37998;53.416;6.730;2023-02-23T07:08:01;39.38;;;22.88;;
51981;SDS011;37998;53.416;6.730;2023-02-23T07:10:27;43.47;;;23.95;;
51981;SDS011;37998;53.416;6.730;2023-02-23T07:12:53;37.47;;;22.25;;
51981;SDS011;37998;53.416;6.730;2023-02-23T07:15:19;41.40;;;21.75;;
51981;SDS011;37998;53.416;6.730;2023-02-23T07:17:45;36.67;;;21.13;;
51981;SDS011;37998;53.416;6.730;2023-02-23T07:20:13;37.17;;;21.50;;
51981;SDS011;37998;53.416;6.730;2023-02-23T07:22:40;36.13;;;21.02;;
51981;SDS011;37998;53.416;6.730;2023-02-23T07:25:06;38.78;;;22.20;;
51981;SDS011;37998;53.416;6.730;2023-02-23T07:27:33;35.83;;;20.83;;
51981;SDS011;37998;53.416;6.730;2023-02-23T07:29:59;37.28;;;21.25;;
51981;SDS011;37998;53.416;6.730;2023-02-23T07:32:27;35.40;;;21.00;;
51981;SDS011;37998;53.416;6.730;2023-02-23T07:34:53;32.95;;;20.58;;
51981;SDS011;37998;53.416;6.730;2023-02-23T07:37:19;38.25;;;21.50;;
51981;SDS011;37998;53.416;6.730;2023-02-23T07:39:45;36.75;;;20.30;;
51981;SDS011;37998;53.416;6.730;2023-02-23T07:42:11;37.08;;;21.50;;
51981;SDS011;37998;53.416;6.730;2023-02-23T07:44:37;36.72;;;21.30;;
51981;SDS011;37998;53.416;6.730;2023-02-23T07:47:04;36.05;;;19.83;;
51981;SDS011;37998;53.416;6.730;2023-02-23T07:49:30;33.38;;;19.90;;
51981;SDS011;37998;53.416;6.730;2023-02-23T07:51:57;35.85;;;19.88;;
51981;SDS011;37998;53.416;6.730;2023-02-23T07:54:23;36.47;;;21.15;;
51981;SDS011;37998;53.416;6.730;2023-02-23T07:56:50;43.85;;;21.30;;
51981;SDS011;37998;53.416;6.730;2023-02-23T07:59:16;40.13;;;23.13;;
51981;SDS011;37998;53.416;6.730;2023-02-23T08:01:41;39.78;;;23.27;;
51981;SDS011;37998;53.416;6.730;2023-02-23T08:04:08;45.38;;;23.40;;
51981;SDS011;37998;53.416;6.730;2023-02-23T08:06:34;43.80;;;24.67;;
51981;SDS011;37998;53.416;6.730;2023-02-23T08:09:00;48.53;;;23.83;;
51981;SDS011;37998;53.416;6.730;2023-02-23T08:11:27;50.88;;;26.52;;
51981;SDS011;37998;53.416;6.730;2023-02-23T08:13:53;45.63;;;24.92;;
51981;SDS011;37998;53.416;6.730;2023-02-23T08:16:25;52.22;;;25.00;;
51981;SDS011;37998;53.416;6.730;2023-02-23T08:18:52;59.45;;;27.60;;
51981;SDS011;37998;53.416;6.730;2023-02-23T08:21:18;65.65;;;30.17;;
51981;SDS011;37998;53.416;6.730;2023-02-23T08:23:43;63.75;;;30.48;;
51981;SDS011;37998;53.416;6.730;2023-02-23T08:26:09;72.82;;;31.23;;
51981;SDS011;37998;53.416;6.730;2023-02-23T08:28:35;59.97;;;29.50;;
51981;SDS011;37998;53.416;6.730;2023-02-23T08:31:01;74.80;;;32.00;;
51981;SDS011;37998;53.416;6.730;2023-02-23T08:33:27;67.43;;;30.30;;
51981;SDS011;37998;53.416;6.730;2023-02-23T08:35:57;62.90;;;29.73;;
51981;SDS011;37998;53.416;6.730;2023-02-23T08:38:23;63.08;;;30.15;;
51981;SDS011;37998;53.416;6.730;2023-02-23T08:40:49;65.72;;;31.08;;
51981;SDS011;37998;53.416;6.730;2023-02-23T08:43:14;69.40;;;31.25;;
51981;SDS011;37998;53.416;6.730;2023-02-23T08:45:40;71.18;;;30.58;;
51981;SDS011;37998;53.416;6.730;2023-02-23T08:48:06;72.90;;;32.67;;
51981;SDS011;37998;53.416;6.730;2023-02-23T08:50:32;67.22;;;32.05;;
51981;SDS011;37998;53.416;6.730;2023-02-23T08:52:58;69.57;;;32.55;;
51981;SDS011;37998;53.416;6.730;2023-02-23T08:55:24;68.70;;;32.42;;
51981;SDS011;37998;53.416;6.730;2023-02-23T08:57:50;72.85;;;32.42;;
51981;SDS011;37998;53.416;6.730;2023-02-23T09:00:16;72.30;;;32.25;;
51981;SDS011;37998;53.416;6.730;2023-02-23T09:02:42;72.30;;;33.42;;
51981;SDS011;37998;53.416;6.730;2023-02-23T09:05:09;72.60;;;34.38;;
51981;SDS011;37998;53.416;6.730;2023-02-23T09:07:36;80.57;;;35.65;;
51981;SDS011;37998;53.416;6.730;2023-02-23T09:10:03;77.40;;;35.45;;
51981;SDS011;37998;53.416;6.730;2023-02-23T09:12:28;75.47;;;36.28;;
51981;SDS011;37998;53.416;6.730;2023-02-23T09:14:54;85.72;;;37.70;;
51981;SDS011;37998;53.416;6.730;2023-02-23T09:17:20;79.50;;;37.28;;
51981;SDS011;37998;53.416;6.730;2023-02-23T09:19:47;77.55;;;34.53;;
51981;SDS011;37998;53.416;6.730;2023-02-23T09:22:13;85.03;;;35.20;;
51981;SDS011;37998;53.416;6.730;2023-02-23T09:24:39;93.15;;;38.40;;
51981;SDS011;37998;53.416;6.730;2023-02-23T09:27:04;84.22;;;36.53;;
51981;SDS011;37998;53.416;6.730;2023-02-23T09:29:36;79.95;;;36.90;;
51981;SDS011;37998;53.416;6.730;2023-02-23T09:32:05;93.38;;;37.95;;
51981;SDS011;37998;53.416;6.730;2023-02-23T09:34:31;78.18;;;35.65;;
51981;SDS011;37998;53.416;6.730;2023-02-23T09:36:57;74.28;;;32.95;;
51981;SDS011;37998;53.416;6.730;2023-02-23T09:39:24;72.05;;;32.15;;
51981;SDS011;37998;53.416;6.730;2023-02-23T09:49:37;75.18;;;32.22;;
51981;SDS011;37998;53.416;6.730;2023-02-23T09:52:05;82.22;;;31.10;;
51981;SDS011;37998;53.416;6.730;2023-02-23T09:54:40;89.75;;;32.38;;
51981;SDS011;37998;53.416;6.730;2023-02-23T09:57:09;76.88;;;29.45;;
51981;SDS011;37998;53.416;6.730;2023-02-23T09:59:38;74.38;;;28.35;;
51981;SDS011;37998;53.416;6.730;2023-02-23T10:04:47;72.57;;;26.85;;
51981;SDS011;37998;53.416;6.730;2023-02-23T10:13:06;73.07;;;28.65;;
51981;SDS011;37998;53.416;6.730;2023-02-23T10:15:54;76.50;;;28.42;;
51981;SDS011;37998;53.416;6.730;2023-02-23T10:21:04;79.13;;;27.67;;
51981;SDS011;37998;53.416;6.730;2023-02-23T10:23:59;64.20;;;26.55;;
51981;SDS011;37998;53.416;6.730;2023-02-23T10:26:31;74.37;;;25.90;;
51981;SDS011;37998;53.416;6.730;2023-02-23T10:29:03;69.05;;;27.50;;
51981;SDS011;37998;53.416;6.730;2023-02-23T10:31:53;75.10;;;27.45;;
51981;SDS011;37998;53.416;6.730;2023-02-23T10:34:22;75.72;;;27.02;;
51981;SDS011;37998;53.416;6.730;2023-02-23T10:36:52;70.35;;;26.10;;
51981;SDS011;37998;53.416;6.730;2023-02-23T10:39:24;80.78;;;27.48;;
51981;SDS011;37998;53.416;6.730;2023-02-23T10:41:50;76.80;;;28.02;;
51981;SDS011;37998;53.416;6.730;2023-02-23T10:44:21;67.82;;;24.90;;
51981;SDS011;37998;53.416;6.730;2023-02-23T10:46:53;68.43;;;26.50;;
51981;SDS011;37998;53.416;6.730;2023-02-23T10:49:42;64.15;;;25.05;;
51981;SDS011;37998;53.416;6.730;2023-02-23T10:52:25;68.47;;;25.05;;
51981;SDS011;37998;53.416;6.730;2023-02-23T10:54:55;62.20;;;24.02;;
51981;SDS011;37998;53.416;6.730;2023-02-23T10:59:58;74.50;;;26.38;;
51981;SDS011;37998;53.416;6.730;2023-02-23T11:02:25;67.57;;;27.38;;
51981;SDS011;37998;53.416;6.730;2023-02-23T11:04:55;78.65;;;29.60;;
51981;SDS011;37998;53.416;6.730;2023-02-23T11:07:23;80.68;;;28.90;;
51981;SDS011;37998;53.416;6.730;2023-02-23T11:09:54;83.93;;;29.10;;
51981;SDS011;37998;53.416;6.730;2023-02-23T11:14:49;90.25;;;31.95;;
51981;SDS011;37998;53.416;6.730;2023-02-23T11:17:22;81.82;;;30.52;;
51981;SDS011;37998;53.416;6.730;2023-02-23T11:19:48;85.63;;;30.73;;
51981;SDS011;37998;53.416;6.730;2023-02-23T11:22:18;85.82;;;30.58;;
51981;SDS011;37998;53.416;6.730;2023-02-23T11:24:47;87.25;;;29.10;;
51981;SDS011;37998;53.416;6.730;2023-02-23T11:27:18;102.45;;;35.22;;
51981;SDS011;37998;53.416;6.730;2023-02-23T11:29:47;107.55;;;35.15;;
51981;SDS011;37998;53.416;6.730;2023-02-23T11:32:20;106.32;;;36.28;;
51981;SDS011;37998;53.416;6.730;2023-02-23T11:37:37;112.50;;;36.47;;
51981;SDS011;37998;53.416;6.730;2023-02-23T11:40:16;123.20;;;38.92;;
51981;SDS011;37998;53.416;6.730;2023-02-23T11:45:19;133.23;;;40.25;;
51981;SDS011;37998;53.416;6.730;2023-02-23T11:47:53;122.28;;;37.15;;
51981;SDS011;37998;53.416;6.730;2023-02-23T11:50:22;144.55;;;40.47;;
51981;SDS011;37998;53.416;6.730;2023-02-23T11:53:23;140.15;;;39.17;;
51981;SDS011;37998;53.416;6.730;2023-02-23T11:55:58;126.80;;;38.70;;
51981;SDS011;37998;53.416;6.730;2023-02-23T12:01:33;122.13;;;36.15;;
51981;SDS011;37998;53.416;6.730;2023-02-23T12:04:08;142.27;;;38.95;;
51981;SDS011;37998;53.416;6.730;2023-02-23T12:06:47;124.25;;;36.22;;
51981;SDS011;37998;53.416;6.730;2023-02-23T12:11:45;130.43;;;38.47;;
51981;SDS011;37998;53.416;6.730;2023-02-23T12:17:05;118.40;;;36.60;;
51981;SDS011;37998;53.416;6.730;2023-02-23T12:19:43;126.80;;;36.85;;
51981;SDS011;37998;53.416;6.730;2023-02-23T12:22:17;121.55;;;36.25;;
51981;SDS011;37998;53.416;6.730;2023-02-23T12:24:48;98.30;;;31.17;;
51981;SDS011;37998;53.416;6.730;2023-02-23T12:27:20;96.10;;;31.00;;
51981;SDS011;37998;53.416;6.730;2023-02-23T12:32:25;17.92;;;3.95;;
51981;SDS011;37998;53.416;6.730;2023-02-23T12:35:15;28.58;;;4.93;;
51981;SDS011;37998;53.416;6.730;2023-02-23T12:38:14;35.75;;;6.10;;
51981;SDS011;37998;53.416;6.730;2023-02-23T12:40:43;37.30;;;7.22;;
51981;SDS011;37998;53.416;6.730;2023-02-23T12:43:21;35.50;;;7.00;;
51981;SDS011;37998;53.416;6.730;2023-02-23T12:45:55;35.17;;;7.93;;
51981;SDS011;37998;53.416;6.730;2023-02-23T12:51:32;51.30;;;7.38;;
51981;SDS011;37998;53.416;6.730;2023-02-23T12:54:15;46.30;;;8.50;;
51981;SDS011;37998;53.416;6.730;2023-02-23T13:02:03;37.90;;;7.55;;
51981;SDS011;37998;53.416;6.730;2023-02-23T13:10:15;38.85;;;7.32;;
51981;SDS011;37998;53.416;6.730;2023-02-23T13:13:04;45.50;;;8.45;;
51981;SDS011;37998;53.416;6.730;2023-02-23T13:15:43;40.70;;;7.03;;
51981;SDS011;37998;53.416;6.730;2023-02-23T13:21:44;42.88;;;6.88;;
51981;SDS011;37998;53.416;6.730;2023-02-23T13:24:20;46.05;;;8.63;;
51981;SDS011;37998;53.416;6.730;2023-02-23T13:29:39;39.75;;;7.88;;
51981;SDS011;37998;53.416;6.730;2023-02-23T13:32:11;34.75;;;6.40;;
51981;SDS011;37998;53.416;6.730;2023-02-23T13:37:23;41.65;;;7.32;;
51981;SDS011;37998;53.416;6.730;2023-02-23T13:45:46;43.33;;;7.57;;
51981;SDS011;37998;53.416;6.730;2023-02-23T13:51:27;29.48;;;5.15;;
51981;SDS011;37998;53.416;6.730;2023-02-23T13:56:43;24.70;;;5.63;;
51981;SDS011;37998;53.416;6.730;2023-02-23T13:59:29;28.92;;;5.97;;
51981;SDS011;37998;53.416;6.730;2023-02-23T14:02:13;25.23;;;6.50;;
51981;SDS011;37998;53.416;6.730;2023-02-23T14:04:47;33.30;;;6.50;;
51981;SDS011;37998;53.416;6.730;2023-02-23T14:07:22;24.17;;;5.53;;
51981;SDS011;37998;53.416;6.730;2023-02-23T14:09:55;25.98;;;5.53;;
51981;SDS011;37998;53.416;6.730;2023-02-23T14:18:02;24.60;;;5.53;;
51981;SDS011;37998;53.416;6.730;2023-02-23T14:37:35;28.48;;;5.15;;
51981;SDS011;37998;53.416;6.730;2023-02-23T14:42:48;25.90;;;4.53;;
51981;SDS011;37998;53.416;6.730;2023-02-23T14:48:04;24.27;;;5.00;;
51981;SDS011;37998;53.416;6.730;2023-02-23T14:50:37;27.08;;;5.45;;
51981;SDS011;37998;53.416;6.730;2023-02-23T14:53:04;18.08;;;4.05;;
51981;SDS011;37998;53.416;6.730;2023-02-23T14:55:34;24.75;;;5.28;;
51981;SDS011;37998;53.416;6.730;2023-02-23T15:00:50;12.63;;;3.25;;
51981;SDS011;37998;53.416;6.730;2023-02-23T15:03:16;21.90;;;5.28;;
51981;SDS011;37998;53.416;6.730;2023-02-23T15:05:53;29.48;;;5.00;;
51981;SDS011;37998;53.416;6.730;2023-02-23T15:08:26;20.83;;;4.53;;
51981;SDS011;37998;53.416;6.730;2023-02-23T15:10:58;18.33;;;4.28;;
51981;SDS011;37998;53.416;6.730;2023-02-23T15:13:32;25.73;;;5.30;;
51981;SDS011;37998;53.416;6.730;2023-02-23T15:16:05;18.55;;;4.20;;
51981;SDS011;37998;53.416;6.730;2023-02-23T15:18:50;16.35;;;4.00;;
51981;SDS011;37998;53.416;6.730;2023-02-23T15:21:18;19.00;;;4.32;;
51981;SDS011;37998;53.416;6.730;2023-02-23T15:23:51;26.20;;;4.78;;
51981;SDS011;37998;53.416;6.730;2023-02-23T15:29:01;20.20;;;4.45;;
51981;SDS011;37998;53.416;6.730;2023-02-23T15:31:30;18.23;;;3.53;;
51981;SDS011;37998;53.416;6.730;2023-02-23T15:33:55;19.65;;;4.65;;
51981;SDS011;37998;53.416;6.730;2023-02-23T15:36:29;13.82;;;3.63;;
51981;SDS011;37998;53.416;6.730;2023-02-23T15:38:59;18.60;;;4.03;;
51981;SDS011;37998;53.416;6.730;2023-02-23T15:41:28;20.77;;;3.97;;
51981;SDS011;37998;53.416;6.730;2023-02-23T15:46:36;20.90;;;4.32;;
51981;SDS011;37998;53.416;6.730;2023-02-23T15:49:03;19.63;;;4.30;;
51981;SDS011;37998;53.416;6.730;2023-02-23T15:51:32;20.52;;;4.40;;
51981;SDS011;37998;53.416;6.730;2023-02-23T15:54:07;19.90;;;4.25;;
51981;SDS011;37998;53.416;6.730;2023-02-23T15:56:41;15.98;;;3.45;;
51981;SDS011;37998;53.416;6.730;2023-02-23T15:59:13;12.50;;;3.05;;
51981;SDS011;37998;53.416;6.730;2023-02-23T16:01:44;20.40;;;3.95;;
51981;SDS011;37998;53.416;6.730;2023-02-23T16:06:49;18.00;;;3.83;;
51981;SDS011;37998;53.416;6.730;2023-02-23T16:09:37;17.77;;;3.45;;
51981;SDS011;37998;53.416;6.730;2023-02-23T16:12:11;20.85;;;2.70;;
51981;SDS011;37998;53.416;6.730;2023-02-23T16:14:54;13.52;;;3.60;;
51981;SDS011;37998;53.416;6.730;2023-02-23T16:17:29;21.63;;;3.60;;
51981;SDS011;37998;53.416;6.730;2023-02-23T16:20:41;23.40;;;4.22;;
51981;SDS011;37998;53.416;6.730;2023-02-23T16:23:02;16.27;;;3.85;;
51981;SDS011;37998;53.416;6.730;2023-02-23T16:25:31;20.42;;;3.90;;
51981;SDS011;37998;53.416;6.730;2023-02-23T16:28:14;15.73;;;3.45;;
51981;SDS011;37998;53.416;6.730;2023-02-23T16:30:43;18.30;;;3.92;;
51981;SDS011;37998;53.416;6.730;2023-02-23T16:33:22;20.92;;;3.50;;
51981;SDS011;37998;53.416;6.730;2023-02-23T16:35:50;19.60;;;3.63;;
51981;SDS011;37998;53.416;6.730;2023-02-23T16:38:35;17.13;;;2.92;;
51981;SDS011;37998;53.416;6.730;2023-02-23T16:41:13;11.77;;;2.58;;
51981;SDS011;37998;53.416;6.730;2023-02-23T16:43:43;17.27;;;3.33;;
51981;SDS011;37998;53.416;6.730;2023-02-23T16:46:11;14.90;;;3.00;;
51981;SDS011;37998;53.416;6.730;2023-02-23T16:48:36;11.52;;;3.22;;
51981;SDS011;37998;53.416;6.730;2023-02-23T16:51:02;16.23;;;2.80;;
51981;SDS011;37998;53.416;6.730;2023-02-23T16:53:32;15.55;;;3.13;;
51981;SDS011;37998;53.416;6.730;2023-02-23T16:55:58;14.70;;;2.75;;
51981;SDS011;37998;53.416;6.730;2023-02-23T16:58:36;12.10;;;2.55;;
51981;SDS011;37998;53.416;6.730;2023-02-23T17:01:03;14.73;;;2.55;;
51981;SDS011;37998;53.416;6.730;2023-02-23T17:03:29;15.05;;;3.28;;
51981;SDS011;37998;53.416;6.730;2023-02-23T17:05:55;12.38;;;2.80;;
51981;SDS011;37998;53.416;6.730;2023-02-23T17:08:22;14.38;;;3.35;;
51981;SDS011;37998;53.416;6.730;2023-02-23T17:10:49;13.30;;;2.45;;
51981;SDS011;37998;53.416;6.730;2023-02-23T17:13:17;14.50;;;2.88;;
51981;SDS011;37998;53.416;6.730;2023-02-23T17:15:45;13.63;;;4.13;;
51981;SDS011;37998;53.416;6.730;2023-02-23T17:18:19;16.23;;;3.20;;
51981;SDS011;37998;53.416;6.730;2023-02-23T17:20:47;15.32;;;2.63;;
51981;SDS011;37998;53.416;6.730;2023-02-23T17:23:13;18.08;;;3.25;;
51981;SDS011;37998;53.416;6.730;2023-02-23T17:25:39;13.60;;;3.28;;